createdAt,value
2022-08-17T00:00:53.922Z,54767.95
2022-08-17T00:01:58.158Z,54726.84
2022-08-17T00:03:02.833Z,54667.70
2022-08-17T00:04:10.753Z,54633.61
2022-08-17T00:05:09.826Z,54597.53
2022-08-17T00:06:12.595Z,54675.72
2022-08-17T00:07:15.161Z,54755.91
2022-08-17T00:08:17.731Z,54643.64
2022-08-17T00:09:20.299Z,54496.28
2022-08-17T00:10:22.964Z,54426.11
2022-08-17T00:11:25.637Z,54399.05
2022-08-17T00:12:41.808Z,54544.40
2022-08-17T00:13:32.419Z,54686.75
2022-08-17T00:14:35.160Z,54628.60
2022-08-17T00:15:37.749Z,54769.95
2022-08-17T00:16:55.348Z,54922.33
2022-08-17T00:17:44.524Z,54832.11
2022-08-17T00:19:03.842Z,54625.59
2022-08-17T00:19:51.194Z,54712.81
2022-08-17T00:20:53.863Z,54865.19
2022-08-17T00:22:35.078Z,54823.08
2022-08-17T00:23:00.537Z,54756.92
2022-08-17T00:24:03.308Z,54719.83
2022-08-17T00:25:05.978Z,54707.80
2022-08-17T00:26:08.540Z,54650.66
2022-08-17T00:27:11.318Z,54545.40
2022-08-17T00:28:14.189Z,54529.36
2022-08-17T00:29:19.926Z,54581.49
2022-08-17T00:30:21.167Z,54573.47
2022-08-17T00:31:23.841Z,54569.46
2022-08-17T00:33:12.501Z,54580.48
2022-08-17T00:33:31.177Z,54565.45
2022-08-17T00:34:34.204Z,54608.55
2022-08-17T00:35:36.974Z,54499.29
2022-08-17T00:36:39.747Z,54544.40
2022-08-17T00:37:42.417Z,54699.78
2022-08-17T00:38:45.191Z,54642.64
2022-08-17T00:39:47.905Z,54580.48
2022-08-17T00:40:50.641Z,54445.16
2022-08-17T00:41:54.531Z,54431.12
2022-08-17T00:42:58.839Z,54470.22
2022-08-17T00:44:01.505Z,54599.53
2022-08-17T00:45:04.206Z,54582.49
2022-08-17T00:46:06.857Z,54723.84
2022-08-17T00:47:09.519Z,54589.51
2022-08-17T00:48:29.285Z,54408.07
2022-08-17T00:49:16.304Z,54328.88
2022-08-17T00:50:18.962Z,54370.98
2022-08-17T00:51:21.535Z,54216.62
2022-08-17T00:52:24.305Z,54222.63
2022-08-17T00:53:26.986Z,54332.89
2022-08-17T00:54:29.654Z,54590.51
2022-08-17T00:55:32.312Z,54630.61
2022-08-17T00:56:34.984Z,54667.70
2022-08-17T00:57:37.853Z,54673.71
2022-08-17T00:58:40.523Z,54749.90
2022-08-17T00:59:43.193Z,54608.55
2022-08-17T01:00:45.818Z,54704.79
2022-08-17T01:01:48.536Z,54480.24
2022-08-17T01:02:51.103Z,54279.77
2022-08-17T01:03:53.872Z,54224.64
2022-08-17T01:04:58.088Z,54191.56
2022-08-17T01:06:00.758Z,54115.38
2022-08-17T01:07:03.629Z,54167.50
2022-08-17T01:08:06.392Z,54248.69
2022-08-17T01:09:09.177Z,54236.66
2022-08-17T01:10:58.690Z,54396.04
2022-08-17T01:11:16.043Z,54481.25
2022-08-17T01:12:18.916Z,54512.32
2022-08-17T01:13:21.583Z,54503.30
2022-08-17T01:14:24.588Z,54628.60
2022-08-17T01:15:27.032Z,54706.79
2022-08-17T01:16:30.013Z,54798.02
2022-08-17T01:17:32.573Z,54488.26
2022-08-17T01:18:35.243Z,54141.44
2022-08-17T01:19:38.122Z,54112.37
2022-08-17T01:20:47.926Z,54313.84
2022-08-17T01:21:45.202Z,54421.10
2022-08-17T01:22:48.177Z,54202.58
2022-08-17T01:23:51.063Z,54138.43
2022-08-17T01:24:53.926Z,54343.92
2022-08-17T01:25:56.590Z,54397.04
2022-08-17T01:26:59.363Z,54331.89
2022-08-17T01:28:02.655Z,54227.64
2022-08-17T01:29:05.218Z,53902.89
2022-08-17T01:30:57.225Z,53863.80
2022-08-17T01:31:12.400Z,53960.02
2022-08-17T01:32:15.071Z,54090.32
2022-08-17T01:33:17.742Z,54112.37
2022-08-17T01:34:20.436Z,53943.99
2022-08-17T01:35:23.087Z,53860.80
2022-08-17T01:36:25.645Z,53780.62
2022-08-17T01:37:28.458Z,53717.48
2022-08-17T01:38:30.988Z,53756.57
2022-08-17T01:39:33.643Z,53888.86
2022-08-17T01:40:36.238Z,53879.84
2022-08-17T01:41:38.912Z,53937.97
2022-08-17T01:42:41.463Z,54135.43
2022-08-17T01:43:44.130Z,54286.78
2022-08-17T01:44:46.810Z,54291.79
2022-08-17T01:45:49.674Z,54147.45
2022-08-17T01:46:53.788Z,54109.37
2022-08-17T01:47:56.964Z,54210.60
2022-08-17T01:48:59.630Z,54199.57
2022-08-17T01:50:02.302Z,54242.68
2022-08-17T01:51:04.984Z,54274.75
2022-08-17T01:52:07.534Z,54303.82
2022-08-17T01:53:10.206Z,54294.80
2022-08-17T01:54:12.878Z,54277.76
2022-08-17T01:55:15.443Z,54368.98
2022-08-17T01:56:18.112Z,54308.83
2022-08-17T01:57:20.485Z,53963.03
2022-08-17T01:58:23.044Z,53775.61
2022-08-17T01:59:25.629Z,53579.18
2022-08-17T02:00:28.316Z,53567.15
2022-08-17T02:01:32.513Z,53430.85
2022-08-17T02:02:35.161Z,53256.48
2022-08-17T02:03:37.834Z,53296.57
2022-08-17T02:04:40.603Z,53375.73
2022-08-17T02:05:43.372Z,53550.11
2022-08-17T02:06:54.478Z,53579.18
2022-08-17T02:07:59.511Z,53488.98
2022-08-17T02:09:02.486Z,53440.88
2022-08-17T02:09:58.562Z,53334.65
2022-08-17T02:11:02.259Z,53214.39
2022-08-17T02:12:37.363Z,53142.25
2022-08-17T02:13:08.932Z,53102.16
2022-08-17T02:14:11.702Z,53095.15
2022-08-17T02:15:14.265Z,53058.07
2022-08-17T02:16:18.472Z,53278.53
2022-08-17T02:17:21.144Z,53451.90
2022-08-17T02:18:23.811Z,53372.73
2022-08-17T02:19:26.493Z,53351.68
2022-08-17T02:20:41.684Z,53288.55
2022-08-17T02:21:33.357Z,53169.30
2022-08-17T02:22:36.024Z,53276.53
2022-08-17T02:23:38.595Z,53411.81
2022-08-17T02:25:00.592Z,53457.91
2022-08-17T02:25:45.266Z,53676.39
2022-08-17T02:26:47.849Z,53828.73
2022-08-17T02:27:50.503Z,53805.68
2022-08-17T02:28:53.067Z,53857.79
2022-08-17T02:29:55.737Z,53919.93
2022-08-17T02:31:01.301Z,53942.98
2022-08-17T02:32:02.403Z,53987.09
2022-08-17T02:33:06.356Z,54073.29
2022-08-17T02:34:09.288Z,54175.52
2022-08-17T02:35:11.953Z,54189.55
2022-08-17T02:36:14.524Z,54241.68
2022-08-17T02:37:17.104Z,54156.48
2022-08-17T02:38:19.559Z,54082.30
2022-08-17T02:39:22.223Z,54207.59
2022-08-17T02:40:32.849Z,54226.64
2022-08-17T02:41:28.909Z,54128.41
2022-08-17T02:42:31.581Z,54160.48
2022-08-17T02:43:34.333Z,54068.27
2022-08-17T02:44:39.696Z,54056.25
2022-08-17T02:45:41.220Z,54168.50
2022-08-17T02:46:43.888Z,54266.73
2022-08-17T02:47:46.554Z,54213.61
2022-08-17T02:48:49.223Z,54081.30
2022-08-17T02:49:54.426Z,54258.71
2022-08-17T02:50:56.097Z,54265.73
2022-08-17T02:51:58.771Z,54330.89
2022-08-17T02:53:04.613Z,54326.87
2022-08-17T02:54:40.235Z,54364.96
2022-08-17T02:55:09.963Z,54336.90
2022-08-17T02:56:12.629Z,54314.85
2022-08-17T02:57:15.393Z,54292.79
2022-08-17T02:58:18.066Z,54346.92
2022-08-17T02:59:22.165Z,54275.75
2022-08-17T03:00:24.829Z,54211.61
2022-08-17T03:01:27.612Z,54220.62
2022-08-17T03:02:30.186Z,54329.88
2022-08-17T03:03:32.845Z,54447.16
2022-08-17T03:04:35.666Z,54427.11
2022-08-17T03:05:38.388Z,54389.02
2022-08-17T03:06:41.168Z,54373.99
2022-08-17T03:07:43.837Z,54317.86
2022-08-17T03:08:46.507Z,54323.87
2022-08-17T03:09:49.178Z,54335.90
2022-08-17T03:10:51.859Z,54407.07
2022-08-17T03:11:55.852Z,54424.11
2022-08-17T03:12:58.611Z,54422.10
2022-08-17T03:14:01.390Z,54324.87
2022-08-17T03:15:04.166Z,54352.94
2022-08-17T03:16:06.938Z,54383.01
2022-08-17T03:17:09.706Z,54471.22
2022-08-17T03:18:19.342Z,54515.33
2022-08-17T03:19:17.616Z,54521.34
2022-08-17T03:20:20.275Z,54539.39
2022-08-17T03:21:23.061Z,54519.34
2022-08-17T03:22:37.059Z,54526.36
2022-08-17T03:23:30.406Z,54560.44
2022-08-17T03:24:33.204Z,54494.28
2022-08-17T03:25:36.396Z,54551.41
2022-08-17T03:26:39.065Z,54640.63
2022-08-17T03:27:42.090Z,54575.47
2022-08-17T03:28:45.945Z,54502.29
2022-08-17T03:29:48.705Z,54549.41
2022-08-17T03:30:51.671Z,54529.36
2022-08-17T03:31:54.457Z,54388.02
2022-08-17T03:32:57.232Z,54515.33
2022-08-17T03:34:00.108Z,54521.34
2022-08-17T03:35:02.778Z,54461.20
2022-08-17T03:36:05.759Z,54559.43
2022-08-17T03:37:08.313Z,54591.51
2022-08-17T03:38:11.097Z,54534.37
2022-08-17T03:39:13.755Z,54584.50
2022-08-17T03:40:16.533Z,54580.48
2022-08-17T03:41:20.732Z,54634.62
2022-08-17T03:42:32.188Z,54568.46
2022-08-17T03:43:27.406Z,54562.44
2022-08-17T03:44:29.978Z,54567.45
2022-08-17T03:45:32.752Z,54573.47
2022-08-17T03:46:36.253Z,54590.51
2022-08-17T03:47:38.829Z,54507.31
2022-08-17T03:48:43.022Z,54591.51
2022-08-17T03:49:45.580Z,54531.36
2022-08-17T03:50:48.250Z,54570.46
2022-08-17T03:51:51.227Z,54556.43
2022-08-17T03:52:54.064Z,54501.29
2022-08-17T03:53:56.770Z,54525.35
2022-08-17T03:54:59.341Z,54512.32
2022-08-17T03:56:02.109Z,54543.39
2022-08-17T03:57:04.684Z,54620.58
2022-08-17T03:58:07.466Z,54581.49
2022-08-17T03:59:10.114Z,54530.36
2022-08-17T04:00:14.333Z,54578.48
2022-08-17T04:01:16.940Z,54621.59
2022-08-17T04:02:19.775Z,54662.69
2022-08-17T04:03:22.334Z,54628.60
2022-08-17T04:04:27.654Z,54625.59
2022-08-17T04:05:29.337Z,54575.47
2022-08-17T04:06:32.090Z,54608.55
2022-08-17T04:07:34.548Z,54560.44
2022-08-17T04:08:37.114Z,54543.39
2022-08-17T04:09:39.885Z,54523.35
2022-08-17T04:10:45.201Z,54553.42
2022-08-17T04:11:46.983Z,54531.36
2022-08-17T04:12:49.993Z,54517.33
2022-08-17T04:13:52.821Z,54501.29
2022-08-17T04:14:55.493Z,54515.33
2022-08-17T04:15:57.959Z,54486.26
2022-08-17T04:17:00.835Z,54465.21
2022-08-17T04:18:03.294Z,54519.34
2022-08-17T04:19:05.862Z,54544.40
2022-08-17T04:20:08.536Z,54560.44
2022-08-17T04:21:11.206Z,54527.36
2022-08-17T04:22:30.152Z,54543.39
2022-08-17T04:23:17.875Z,54712.81
2022-08-17T04:24:20.640Z,54762.93
2022-08-17T04:25:23.212Z,54767.95
2022-08-17T04:26:53.837Z,54779.98
2022-08-17T04:27:30.099Z,54710.80
2022-08-17T04:28:32.972Z,54773.96
2022-08-17T04:29:54.165Z,54771.95
2022-08-17T04:30:39.946Z,54859.17
2022-08-17T04:31:42.714Z,54872.21
2022-08-17T04:33:03.939Z,54887.24
2022-08-17T04:33:50.005Z,54918.32
2022-08-17T04:34:52.774Z,54862.18
2022-08-17T04:35:55.546Z,54911.30
2022-08-17T04:36:58.216Z,54841.13
2022-08-17T04:38:00.983Z,54825.09
2022-08-17T04:39:03.861Z,54870.20
2022-08-17T04:40:06.617Z,54865.19
2022-08-17T04:41:09.305Z,54861.18
2022-08-17T04:42:12.070Z,54862.18
2022-08-17T04:43:14.746Z,54846.14
2022-08-17T04:44:27.252Z,54863.18
2022-08-17T04:45:23.058Z,54808.05
2022-08-17T04:46:26.853Z,54897.27
2022-08-17T04:47:29.421Z,54908.30
2022-08-17T04:48:35.969Z,54944.39
2022-08-17T04:49:36.396Z,54948.40
2022-08-17T04:50:39.175Z,54954.41
2022-08-17T04:51:45.570Z,54971.46
2022-08-17T04:52:46.043Z,54925.34
2022-08-17T04:53:54.022Z,54911.30
2022-08-17T04:54:52.820Z,54878.22
2022-08-17T04:55:55.692Z,54933.36
2022-08-17T04:56:58.369Z,54964.44
2022-08-17T04:58:01.039Z,54944.39
2022-08-17T04:59:03.492Z,54942.38
2022-08-17T05:00:06.168Z,54940.38
2022-08-17T05:01:09.003Z,54911.30
2022-08-17T05:02:11.816Z,54931.36
2022-08-17T05:03:14.384Z,54934.36
2022-08-17T05:04:33.536Z,54876.21
2022-08-17T05:05:21.151Z,54913.31
2022-08-17T05:06:23.843Z,54821.08
2022-08-17T05:07:31.289Z,54875.21
2022-08-17T05:08:30.801Z,54936.37
2022-08-17T05:09:33.594Z,54943.39
2022-08-17T05:10:36.245Z,54875.21
2022-08-17T05:11:40.458Z,54869.20
2022-08-17T05:12:44.654Z,54888.25
2022-08-17T05:13:47.323Z,54943.39
2022-08-17T05:14:49.900Z,54997.52
2022-08-17T05:15:52.561Z,55016.57
2022-08-17T05:16:55.339Z,54958.42
2022-08-17T05:17:57.900Z,55007.55
2022-08-17T05:19:00.573Z,55012.56
2022-08-17T05:20:03.343Z,54944.39
2022-08-17T05:21:06.011Z,54982.48
2022-08-17T05:22:08.684Z,54994.52
2022-08-17T05:23:11.360Z,55005.54
2022-08-17T05:24:42.728Z,55082.74
2022-08-17T05:25:18.335Z,55088.75
2022-08-17T05:26:26.445Z,55045.64
2022-08-17T05:27:29.309Z,55090.76
2022-08-17T05:28:30.841Z,55172.97
2022-08-17T05:29:35.781Z,55189.01
2022-08-17T05:30:37.827Z,55148.91
2022-08-17T05:31:40.391Z,55196.03
2022-08-17T05:32:43.064Z,55153.92
2022-08-17T05:33:46.291Z,55129.86
2022-08-17T05:34:49.028Z,55230.12
2022-08-17T05:35:51.791Z,55170.96
2022-08-17T05:36:54.551Z,55172.97
2022-08-17T05:37:57.243Z,55130.86
2022-08-17T05:39:00.320Z,55183.00
2022-08-17T05:40:02.995Z,55312.34
2022-08-17T05:41:05.851Z,55357.45
2022-08-17T05:42:08.323Z,55329.38
2022-08-17T05:43:10.995Z,55301.30
2022-08-17T05:44:13.681Z,55341.41
2022-08-17T05:45:16.240Z,55348.43
2022-08-17T05:46:20.354Z,55331.38
2022-08-17T05:47:22.891Z,55314.34
2022-08-17T05:48:35.436Z,55281.25
2022-08-17T05:49:29.672Z,55293.29
2022-08-17T05:50:32.243Z,55337.40
2022-08-17T05:51:34.912Z,55383.52
2022-08-17T05:52:37.585Z,55397.56
2022-08-17T05:53:40.354Z,55394.55
2022-08-17T05:54:44.554Z,55371.49
2022-08-17T05:55:47.736Z,55359.46
2022-08-17T05:56:51.422Z,55375.50
2022-08-17T05:57:56.122Z,55362.46
2022-08-17T05:58:59.209Z,55353.44
2022-08-17T06:00:02.926Z,55370.48
2022-08-17T06:01:05.837Z,55379.51
2022-08-17T06:02:09.061Z,55429.64
2022-08-17T06:03:12.147Z,55433.65
2022-08-17T06:04:15.225Z,55525.90
2022-08-17T06:05:18.506Z,55581.05
2022-08-17T06:06:31.577Z,55232.13
2022-08-17T06:07:33.791Z,55534.92
2022-08-17T06:08:36.373Z,55553.97
2022-08-17T06:09:38.930Z,55567.01
2022-08-17T06:10:41.604Z,55618.14
2022-08-17T06:11:44.278Z,55643.21
2022-08-17T06:12:46.888Z,55660.26
2022-08-17T06:13:49.615Z,55704.38
2022-08-17T06:14:52.485Z,55694.35
2022-08-17T06:15:55.376Z,55698.36
2022-08-17T06:16:58.043Z,55672.29
2022-08-17T06:18:00.804Z,55688.34
2022-08-17T06:19:03.785Z,55687.34
2022-08-17T06:20:06.656Z,55690.34
2022-08-17T06:21:10.051Z,55677.30
2022-08-17T06:22:12.914Z,55658.25
2022-08-17T06:23:15.793Z,55678.31
2022-08-17T06:24:18.665Z,55685.33
2022-08-17T06:25:21.337Z,55642.21
2022-08-17T06:26:25.872Z,55621.15
2022-08-17T06:27:28.315Z,55688.34
2022-08-17T06:28:31.081Z,55683.32
2022-08-17T06:29:33.851Z,55698.36
2022-08-17T06:30:57.508Z,55704.38
2022-08-17T06:31:40.832Z,55716.41
2022-08-17T06:32:43.707Z,55744.49
2022-08-17T06:33:46.484Z,55763.54
2022-08-17T06:34:49.153Z,55826.71
2022-08-17T06:35:52.020Z,55851.79
2022-08-17T06:36:55.924Z,55951.06
2022-08-17T06:37:58.903Z,56046.32
2022-08-17T06:39:01.773Z,56044.32
2022-08-17T06:40:04.703Z,56061.37
2022-08-17T06:41:07.623Z,56082.43
2022-08-17T06:42:10.506Z,56087.44
2022-08-17T06:43:14.846Z,56044.32
2022-08-17T06:44:50.019Z,56028.27
2022-08-17T06:45:22.091Z,56050.34
2022-08-17T06:46:24.971Z,56026.27
2022-08-17T06:47:28.646Z,56033.29
2022-08-17T06:48:31.863Z,56014.23
2022-08-17T06:49:34.625Z,55979.14
2022-08-17T06:50:37.208Z,56003.20
2022-08-17T06:51:39.863Z,56026.27
2022-08-17T06:52:46.520Z,56036.30
2022-08-17T06:53:47.126Z,56119.53
2022-08-17T06:54:50.791Z,56129.56
2022-08-17T06:55:53.794Z,56131.56
2022-08-17T06:56:57.077Z,56151.62
2022-08-17T06:58:00.258Z,56146.61
2022-08-17T06:59:05.078Z,56128.55
2022-08-17T07:00:07.859Z,56146.61
2022-08-17T07:01:11.739Z,56196.75
2022-08-17T07:02:14.728Z,56196.75
2022-08-17T07:03:17.711Z,56219.81
2022-08-17T07:04:20.783Z,56222.82
2022-08-17T07:05:23.669Z,56272.96
2022-08-17T07:06:26.432Z,56236.86
2022-08-17T07:07:29.407Z,56205.77
2022-08-17T07:08:34.669Z,56203.77
2022-08-17T07:09:36.511Z,56229.84
2022-08-17T07:10:39.465Z,56225.83
2022-08-17T07:11:42.349Z,56233.85
2022-08-17T07:12:45.547Z,56269.96
2022-08-17T07:13:51.404Z,56272.96
2022-08-17T07:14:53.009Z,56308.07
2022-08-17T07:15:57.163Z,56345.17
2022-08-17T07:17:00.196Z,56390.30
2022-08-17T07:18:03.451Z,56425.40
2022-08-17T07:19:06.356Z,56441.45
2022-08-17T07:20:09.648Z,56527.70
2022-08-17T07:21:17.499Z,56552.77
2022-08-17T07:22:17.850Z,56558.79
2022-08-17T07:23:21.024Z,56544.75
2022-08-17T07:24:29.839Z,56500.62
2022-08-17T07:25:28.210Z,56518.68
2022-08-17T07:26:31.304Z,56494.61
2022-08-17T07:27:34.058Z,56543.75
2022-08-17T07:28:36.944Z,56521.68
2022-08-17T07:29:39.807Z,56572.84
2022-08-17T07:30:45.549Z,56551.77
2022-08-17T07:31:47.403Z,56562.80
2022-08-17T07:32:50.481Z,56554.78
2022-08-17T07:33:53.356Z,56631.00
2022-08-17T07:34:56.539Z,56665.11
2022-08-17T07:35:59.820Z,56670.12
2022-08-17T07:37:02.798Z,56688.17
2022-08-17T07:38:05.982Z,56717.26
2022-08-17T07:39:10.597Z,56785.46
2022-08-17T07:40:16.440Z,56836.62
2022-08-17T07:41:18.605Z,56839.62
2022-08-17T07:42:21.578Z,56911.84
2022-08-17T07:43:24.354Z,56925.89
2022-08-17T07:44:27.457Z,56959.99
2022-08-17T07:45:30.409Z,56967.01
2022-08-17T07:46:33.689Z,57003.12
2022-08-17T07:47:36.674Z,57013.15
2022-08-17T07:48:39.641Z,57028.20
2022-08-17T07:49:42.617Z,57052.27
2022-08-17T07:50:49.463Z,57024.18
2022-08-17T07:51:51.028Z,57065.31
2022-08-17T07:52:54.021Z,57048.26
2022-08-17T07:54:13.111Z,57080.36
2022-08-17T07:55:01.904Z,57125.50
2022-08-17T07:56:04.883Z,57120.48
2022-08-17T07:57:08.167Z,57133.52
2022-08-17T07:58:11.245Z,57143.55
2022-08-17T07:59:14.427Z,57200.73
2022-08-17T08:00:17.508Z,57225.80
2022-08-17T08:01:20.435Z,57203.73
2022-08-17T08:02:25.197Z,57237.84
2022-08-17T08:03:28.575Z,57243.86
2022-08-17T08:05:49.830Z,57301.04
2022-08-17T08:06:40.284Z,57341.16
2022-08-17T08:07:43.208Z,57471.57
2022-08-17T08:08:46.245Z,57442.48
2022-08-17T08:09:49.212Z,57516.72
2022-08-17T08:10:52.404Z,57559.86
2022-08-17T08:11:55.171Z,57612.02
2022-08-17T08:12:57.942Z,57635.09
2022-08-17T08:14:01.123Z,57661.18
2022-08-17T08:15:03.901Z,57623.05
2022-08-17T08:16:06.673Z,57672.21
2022-08-17T08:17:09.574Z,57741.44
2022-08-17T08:18:12.213Z,57762.50
2022-08-17T08:19:18.218Z,57785.58
2022-08-17T08:20:47.627Z,57826.71
2022-08-17T08:21:24.012Z,57818.69
2022-08-17T08:22:26.886Z,57804.64
2022-08-17T08:23:29.658Z,57803.64
2022-08-17T08:24:32.741Z,57840.76
2022-08-17T08:25:35.713Z,57812.66
2022-08-17T08:26:39.508Z,57805.64
2022-08-17T08:27:42.739Z,57777.55
2022-08-17T08:28:45.569Z,57811.66
2022-08-17T08:29:48.443Z,57830.73
2022-08-17T08:30:51.522Z,57789.59
2022-08-17T08:31:55.008Z,57832.73
2022-08-17T08:32:57.987Z,57839.75
2022-08-17T08:34:01.066Z,57872.86
2022-08-17T08:35:04.151Z,57904.97
2022-08-17T08:36:07.390Z,57917.00
2022-08-17T08:37:16.494Z,57925.03
2022-08-17T08:38:15.021Z,57945.10
2022-08-17T08:39:18.102Z,58002.29
2022-08-17T08:40:21.194Z,57997.27
2022-08-17T08:41:24.159Z,58092.59
2022-08-17T08:42:27.242Z,58116.66
2022-08-17T08:43:30.013Z,58187.90
2022-08-17T08:45:00.011Z,58228.04
2022-08-17T08:45:37.702Z,58272.18
2022-08-17T08:46:40.477Z,58262.15
2022-08-17T08:47:43.363Z,58193.92
2022-08-17T08:48:56.665Z,58220.01
2022-08-17T08:50:06.950Z,58188.91
2022-08-17T08:50:56.277Z,58117.67
2022-08-17T08:52:00.069Z,58167.84
2022-08-17T08:53:03.048Z,58155.79
2022-08-17T08:54:06.539Z,58237.07
2022-08-17T08:55:09.722Z,58301.28
2022-08-17T08:56:12.696Z,58385.57
2022-08-17T08:57:34.154Z,58420.69
2022-08-17T08:58:31.789Z,58507.98
2022-08-17T08:59:24.801Z,58509.99
2022-08-17T09:00:27.894Z,58565.18
2022-08-17T09:01:30.812Z,58614.35
2022-08-17T09:02:34.789Z,58726.74
2022-08-17T09:03:52.357Z,58814.04
2022-08-17T09:05:10.528Z,58901.35
2022-08-17T09:05:46.765Z,58942.50
2022-08-17T09:06:51.172Z,58997.69
2022-08-17T09:07:57.333Z,59063.93
2022-08-17T09:08:58.763Z,59185.36
2022-08-17T09:10:01.945Z,59186.36
2022-08-17T09:11:05.129Z,59235.54
2022-08-17T09:12:07.799Z,59225.50
2022-08-17T09:13:11.019Z,59282.71
2022-08-17T09:14:21.530Z,59372.04
2022-08-17T09:15:19.287Z,59445.30
2022-08-17T09:16:22.366Z,59462.36
2022-08-17T09:17:25.144Z,59505.52
2022-08-17T09:19:01.089Z,59476.42
2022-08-17T09:19:32.223Z,59473.40
2022-08-17T09:20:34.992Z,59506.53
2022-08-17T09:21:37.997Z,59504.52
2022-08-17T09:22:42.376Z,59507.53
2022-08-17T09:23:45.149Z,59501.51
2022-08-17T09:24:47.927Z,59526.60
2022-08-17T09:25:50.902Z,59518.57
2022-08-17T09:26:53.775Z,59580.80
2022-08-17T09:27:56.571Z,59590.84
2022-08-17T09:29:00.863Z,59622.95
2022-08-17T09:30:03.636Z,59632.99
2022-08-17T09:31:06.606Z,59642.03
2022-08-17T09:32:09.589Z,59671.13
2022-08-17T09:33:12.458Z,59662.10
2022-08-17T09:34:15.746Z,59637.01
2022-08-17T09:35:18.824Z,59663.11
2022-08-17T09:36:21.905Z,59640.02
2022-08-17T09:37:24.778Z,59648.05
2022-08-17T09:38:31.861Z,59661.10
2022-08-17T09:39:32.029Z,59688.20
2022-08-17T09:40:34.835Z,59666.11
2022-08-17T09:41:37.614Z,59682.18
2022-08-17T09:42:40.274Z,59673.14
2022-08-17T09:43:43.154Z,59679.16
2022-08-17T09:44:45.818Z,59677.16
2022-08-17T09:45:48.591Z,59634.00
2022-08-17T09:46:51.467Z,59594.85
2022-08-17T09:47:54.341Z,59579.80
2022-08-17T09:48:58.653Z,59587.82
2022-08-17T09:50:01.418Z,59578.79
2022-08-17T09:51:06.466Z,59566.75
2022-08-17T09:52:08.501Z,59508.54
2022-08-17T09:53:11.376Z,59543.66
2022-08-17T09:54:37.556Z,59540.65
2022-08-17T09:55:18.556Z,59528.61
2022-08-17T09:56:21.230Z,59510.54
2022-08-17T09:57:32.153Z,59551.69
2022-08-17T09:58:29.227Z,59482.44
2022-08-17T09:59:38.372Z,59526.60
2022-08-17T10:00:36.411Z,59516.56
2022-08-17T10:01:39.492Z,59483.44
2022-08-17T10:02:42.362Z,59517.57
2022-08-17T10:03:45.136Z,59515.56
2022-08-17T10:04:47.813Z,59555.71
2022-08-17T10:05:50.785Z,59582.81
2022-08-17T10:06:55.398Z,59569.76
2022-08-17T10:07:58.172Z,59612.92
2022-08-17T10:09:01.046Z,59618.94
2022-08-17T10:10:03.720Z,59645.04
2022-08-17T10:11:06.490Z,59645.04
2022-08-17T10:12:09.365Z,59597.86
2022-08-17T10:13:12.032Z,59638.01
2022-08-17T10:14:37.412Z,59667.12
2022-08-17T10:15:19.216Z,59705.26
2022-08-17T10:16:21.885Z,59677.16
2022-08-17T10:17:24.663Z,59697.23
2022-08-17T10:18:31.987Z,59684.18
2022-08-17T10:19:31.752Z,59686.19
2022-08-17T10:20:34.521Z,59725.34
2022-08-17T10:21:37.486Z,59652.06
2022-08-17T10:22:40.263Z,59728.35
2022-08-17T10:23:43.240Z,59712.29
2022-08-17T10:25:21.359Z,59693.21
2022-08-17T10:25:55.111Z,59696.23
2022-08-17T10:26:57.044Z,59721.32
2022-08-17T10:27:59.049Z,59757.45
2022-08-17T10:29:01.713Z,59733.37
2022-08-17T10:30:04.475Z,59775.52
2022-08-17T10:32:11.762Z,60531.42
2022-08-17T10:33:14.431Z,60506.32
2022-08-17T10:34:17.307Z,60492.27
2022-08-17T10:35:20.081Z,60457.13
2022-08-17T10:36:22.811Z,60465.16
2022-08-17T10:37:25.629Z,60427.01
2022-08-17T10:38:28.291Z,60435.04
2022-08-17T10:39:31.118Z,60385.85
2022-08-17T10:40:33.837Z,60413.96
2022-08-17T10:41:40.208Z,60373.80
2022-08-17T10:42:40.918Z,60361.76
2022-08-17T10:43:43.586Z,60310.56
2022-08-17T10:44:47.679Z,60309.55
2022-08-17T10:45:50.465Z,60268.39
2022-08-17T10:46:54.874Z,60263.38
2022-08-17T10:48:01.309Z,60256.35
2022-08-17T10:49:01.857Z,60226.23
2022-08-17T10:50:04.519Z,60225.23
2022-08-17T10:51:07.295Z,60181.06
2022-08-17T10:52:10.066Z,60138.90
2022-08-17T10:53:16.657Z,60116.81
2022-08-17T10:54:17.042Z,60094.73
2022-08-17T10:55:19.816Z,60120.83
2022-08-17T10:56:22.801Z,60070.64
2022-08-17T10:57:25.565Z,60108.79
2022-08-17T10:58:28.337Z,60055.58
2022-08-17T10:59:31.107Z,60024.46
2022-08-17T11:00:34.043Z,60030.48
2022-08-17T11:01:36.859Z,60020.45
2022-08-17T11:02:39.939Z,59942.15
2022-08-17T11:03:42.708Z,59912.04
2022-08-17T11:04:45.383Z,59875.90
2022-08-17T11:05:48.049Z,59841.77
2022-08-17T11:06:50.824Z,59774.52
2022-08-17T11:07:53.602Z,59675.15
2022-08-17T11:08:56.370Z,59626.97
2022-08-17T11:09:59.033Z,59519.57
2022-08-17T11:11:01.809Z,59459.35
2022-08-17T11:12:04.581Z,59386.09
2022-08-17T11:13:07.351Z,59319.84
2022-08-17T11:14:10.129Z,59233.53
2022-08-17T11:15:13.206Z,59118.12
2022-08-17T11:16:15.977Z,59014.75
2022-08-17T11:17:18.645Z,58972.60
2022-08-17T11:18:21.929Z,58911.39
2022-08-17T11:19:24.701Z,58937.48
2022-08-17T11:20:27.575Z,58897.34
2022-08-17T11:21:30.246Z,58883.29
2022-08-17T11:22:33.780Z,58848.16
2022-08-17T11:23:36.609Z,59004.71
2022-08-17T11:24:39.279Z,59025.79
2022-08-17T11:25:43.178Z,59002.71
2022-08-17T11:26:45.948Z,58976.62
2022-08-17T11:27:48.824Z,58922.43
2022-08-17T11:28:52.818Z,58858.20
2022-08-17T11:30:01.410Z,58779.93
2022-08-17T11:31:00.318Z,58709.68
2022-08-17T11:32:03.293Z,58666.53
2022-08-17T11:33:06.072Z,58555.14
2022-08-17T11:34:10.066Z,58437.75
2022-08-17T11:35:13.145Z,58291.25
2022-08-17T11:36:16.326Z,58206.96
2022-08-17T11:37:19.302Z,57997.27
2022-08-17T11:38:22.281Z,57836.75
2022-08-17T11:39:25.283Z,57682.25
2022-08-17T11:40:28.337Z,57472.58
2022-08-17T11:41:31.115Z,57192.70
2022-08-17T11:42:34.189Z,56922.87
2022-08-17T11:43:40.913Z,56600.92
2022-08-17T11:44:41.063Z,56103.48
2022-08-17T11:45:43.738Z,55426.63
2022-08-17T11:46:51.875Z,55006.54
2022-08-17T11:48:16.011Z,54893.26
2022-08-17T11:48:55.428Z,54756.92
2022-08-17T11:49:58.405Z,54700.78
2022-08-17T11:51:01.384Z,54670.71
2022-08-17T11:52:04.460Z,54619.58
2022-08-17T11:53:07.541Z,54572.46
2022-08-17T11:55:34.714Z,54561.44
2022-08-17T11:56:19.649Z,54534.37
2022-08-17T11:57:24.055Z,54512.32
2022-08-17T11:58:27.054Z,54475.23
2022-08-17T11:59:29.707Z,54452.18
2022-08-17T12:00:32.579Z,54475.23
2022-08-17T12:01:35.249Z,54426.11
2022-08-17T12:02:38.123Z,54426.11
2022-08-17T12:03:40.899Z,54384.01
2022-08-17T12:04:43.737Z,54416.09
2022-08-17T12:05:46.647Z,54407.07
2022-08-17T12:06:49.432Z,54443.15
2022-08-17T12:07:52.329Z,54473.23
2022-08-17T12:08:55.416Z,54458.19
2022-08-17T12:09:58.859Z,54444.16
2022-08-17T12:11:01.535Z,54432.13
2022-08-17T12:12:13.733Z,54391.03
2022-08-17T12:13:08.715Z,54405.06
2022-08-17T12:14:16.986Z,54387.02
2022-08-17T12:15:15.893Z,54379.00
2022-08-17T12:16:18.872Z,54360.96
2022-08-17T12:17:40.837Z,54333.89
2022-08-17T12:18:27.183Z,54332.89
2022-08-17T12:19:29.960Z,54331.89
2022-08-17T12:20:32.744Z,54310.84
2022-08-17T12:21:35.397Z,54340.91
2022-08-17T12:22:38.270Z,54298.81
2022-08-17T12:23:40.943Z,54336.90
2022-08-17T12:24:45.350Z,54304.82